RAM220 GMMN-UUEE
Flight info
| Callsign | RAM220 |
|---|---|
| Flight time | N/A |
| Altitude | 36000 |
| Route | TOLSI UG5 KORIS L27 MAR DCT ALCOL N871 TOPTU DCT TOU DCT GAI DCT MEN DCT NINUN UN871 OMASI N871 DITON T163 ZUE T125 ROMIR N851 TEDGO N869 ANELA Z715 RIKLU P31 GOVEN DCT DENKO/K0839F360 DCT RUSNE/N0460F360 DCT IGORO/K0859F360 M864 DIPOP DIPOP3F |
| Aircraft | B38M/M-SDE1FGHILORVWXY/HB1 |
Departure
| Time | 2026-04-27 13:17 |
|---|---|
| Airport | Mohammed V International Airport (GMMN) |
Arrival
| Time | N/A |
|---|---|
| Airport | Sheremetyevo International Airport (UUEE) |
| Time | Latitude | Longitude | Altitude | Speed | Heading |
|---|---|---|---|---|---|
| 2026-04-27 12:59 | 33.37167 | -7.58183 | 654 ft | 0 kts | 65° |
| 2026-04-27 13:10 | 33.37164 | -7.58192 | 654 ft | 4 kts | 63° |
| 2026-04-27 13:10 | 33.37152 | -7.58221 | 655 ft | 4 kts | 72° |
| 2026-04-27 13:10 | 33.37149 | -7.58250 | 654 ft | 4 kts | 98° |
| 2026-04-27 13:10 | 33.37157 | -7.58280 | 657 ft | 4 kts | 130° |
| 2026-04-27 13:11 | 33.37174 | -7.58295 | 657 ft | 1 kts | 164° |
| 2026-04-27 13:14 | 33.37163 | -7.58291 | 655 ft | 3 kts | 164° |
| 2026-04-27 13:15 | 33.37135 | -7.58282 | 657 ft | 5 kts | 164° |
| 2026-04-27 13:15 | 33.37090 | -7.58267 | 655 ft | 8 kts | 164° |
| 2026-04-27 13:15 | 33.37030 | -7.58247 | 655 ft | 10 kts | 164° |
| 2026-04-27 13:15 | 33.35207 | -7.58257 | 658 ft | 0 kts | 344° |
| 2026-04-27 13:16 | 33.35234 | -7.58266 | 657 ft | 14 kts | 344° |
| 2026-04-27 13:16 | 33.35502 | -7.58361 | 651 ft | 73 kts | 344° |
| 2026-04-27 13:17 | 33.36190 | -7.58635 | 653 ft | 132 kts | 337° |
| 2026-04-27 13:17 | 33.37122 | -7.59052 | 795 ft | 150 kts | 338° |
| 2026-04-27 13:17 | 33.38113 | -7.59397 | 1302 ft | 142 kts | 346° |
| 2026-04-27 13:17 | 33.39079 | -7.59623 | 1620 ft | 149 kts | 347° |
| 2026-04-27 13:18 | 33.40122 | -7.59923 | 1821 ft | 159 kts | 345° |
| 2026-04-27 13:18 | 33.41239 | -7.60181 | 2116 ft | 171 kts | 356° |
| 2026-04-27 13:18 | 33.42478 | -7.60088 | 2423 ft | 186 kts | 11° |
| 2026-04-27 13:18 | 33.43748 | -7.59547 | 2980 ft | 199 kts | 26° |
| 2026-04-27 13:19 | 33.44913 | -7.58536 | 3542 ft | 217 kts | 45° |
| 2026-04-27 13:19 | 33.45940 | -7.57098 | 4042 ft | 237 kts | 50° |
| 2026-04-27 13:19 | 33.47016 | -7.55554 | 4794 ft | 244 kts | 51° |
| 2026-04-27 13:19 | 33.48131 | -7.53965 | 5514 ft | 253 kts | 52° |
| 2026-04-27 13:20 | 33.49277 | -7.52333 | 6244 ft | 260 kts | 53° |
| 2026-04-27 13:20 | 33.50456 | -7.50650 | 6941 ft | 267 kts | 52° |
| 2026-04-27 13:20 | 33.51661 | -7.48931 | 7709 ft | 272 kts | 52° |
| 2026-04-27 13:20 | 33.52881 | -7.47188 | 8509 ft | 275 kts | 52° |
| 2026-04-27 13:21 | 33.54117 | -7.45424 | 9287 ft | 279 kts | 52° |
| 2026-04-27 13:21 | 33.55374 | -7.43633 | 10057 ft | 282 kts | 51° |
| 2026-04-27 13:21 | 33.56919 | -7.42175 | 10762 ft | 289 kts | 25° |
| 2026-04-27 13:21 | 33.58866 | -7.41547 | 11280 ft | 300 kts | 10° |
| 2026-04-27 13:22 | 33.60981 | -7.41161 | 11722 ft | 315 kts | 8° |
| 2026-04-27 13:22 | 33.63215 | -7.40787 | 12100 ft | 332 kts | 9° |
| 2026-04-27 13:22 | 33.65556 | -7.40340 | 12465 ft | 349 kts | 10° |
| 2026-04-27 13:22 | 33.67987 | -7.39851 | 13006 ft | 359 kts | 10° |
| 2026-04-27 13:23 | 33.70474 | -7.39369 | 13645 ft | 366 kts | 9° |
| 2026-04-27 13:23 | 33.73003 | -7.38893 | 14253 ft | 371 kts | 9° |
| 2026-04-27 13:23 | 33.75570 | -7.38404 | 14922 ft | 375 kts | 9° |
| 2026-04-27 13:23 | 33.78156 | -7.37903 | 15561 ft | 379 kts | 9° |
| 2026-04-27 13:24 | 33.80778 | -7.37396 | 16195 ft | 383 kts | 9° |
| 2026-04-27 13:24 | 33.83419 | -7.36889 | 16830 ft | 386 kts | 9° |
| 2026-04-27 13:24 | 33.86080 | -7.36377 | 17464 ft | 390 kts | 9° |
| 2026-04-27 13:24 | 33.88772 | -7.35858 | 18091 ft | 394 kts | 9° |
| 2026-04-27 13:25 | 33.91494 | -7.35332 | 18646 ft | 397 kts | 9° |
| 2026-04-27 13:25 | 33.94231 | -7.34804 | 19182 ft | 401 kts | 9° |
| 2026-04-27 13:25 | 33.96991 | -7.34271 | 19712 ft | 404 kts | 9° |
| 2026-04-27 13:25 | 33.99777 | -7.33733 | 20264 ft | 407 kts | 9° |
| 2026-04-27 13:26 | 34.02576 | -7.33191 | 20796 ft | 410 kts | 9° |
| 2026-04-27 13:26 | 34.05405 | -7.32644 | 21320 ft | 413 kts | 9° |
| 2026-04-27 13:26 | 34.08244 | -7.32094 | 21839 ft | 415 kts | 9° |
| 2026-04-27 13:26 | 34.11106 | -7.31471 | 22346 ft | 418 kts | 16° |
| 2026-04-27 13:27 | 34.13788 | -7.30152 | 22857 ft | 419 kts | 27° |
| 2026-04-27 13:27 | 34.16398 | -7.28556 | 23348 ft | 422 kts | 28° |
| 2026-04-27 13:27 | 34.19016 | -7.26900 | 23778 ft | 425 kts | 28° |
| 2026-04-27 13:27 | 34.21651 | -7.25265 | 24179 ft | 428 kts | 27° |
| 2026-04-27 13:28 | 34.24322 | -7.23640 | 24577 ft | 431 kts | 27° |
| 2026-04-27 13:28 | 34.27008 | -7.21994 | 24997 ft | 434 kts | 27° |
| 2026-04-27 13:28 | 34.29704 | -7.20321 | 25378 ft | 437 kts | 27° |
| 2026-04-27 13:28 | 34.32417 | -7.18637 | 25755 ft | 440 kts | 27° |
| 2026-04-27 13:29 | 34.35144 | -7.16955 | 26138 ft | 443 kts | 27° |
| 2026-04-27 13:29 | 34.37903 | -7.15254 | 26510 ft | 445 kts | 27° |
| 2026-04-27 13:29 | 34.40665 | -7.13543 | 26874 ft | 448 kts | 27° |
| 2026-04-27 13:29 | 34.43444 | -7.11818 | 27238 ft | 450 kts | 27° |
| 2026-04-27 13:30 | 34.46242 | -7.10084 | 27607 ft | 453 kts | 27° |
| 2026-04-27 13:30 | 34.49060 | -7.08337 | 27961 ft | 455 kts | 27° |
| 2026-04-27 13:30 | 34.51889 | -7.06581 | 28312 ft | 458 kts | 27° |
| 2026-04-27 13:30 | 34.54723 | -7.04819 | 28660 ft | 460 kts | 27° |
| 2026-04-27 13:31 | 34.57583 | -7.03040 | 29019 ft | 462 kts | 27° |
| 2026-04-27 13:31 | 34.60456 | -7.01252 | 29369 ft | 465 kts | 27° |
| 2026-04-27 13:31 | 34.63341 | -6.99474 | 29697 ft | 467 kts | 27° |
| 2026-04-27 13:31 | 34.66218 | -6.97730 | 30005 ft | 469 kts | 27° |
| 2026-04-27 13:32 | 34.69180 | -6.95926 | 30278 ft | 471 kts | 27° |
| 2026-04-27 13:32 | 34.72072 | -6.94145 | 30543 ft | 473 kts | 27° |
| 2026-04-27 13:32 | 34.75012 | -6.92333 | 30807 ft | 476 kts | 27° |
| 2026-04-27 13:32 | 34.77975 | -6.90516 | 31059 ft | 478 kts | 27° |
| 2026-04-27 13:33 | 34.80951 | -6.88693 | 31360 ft | 479 kts | 27° |
| 2026-04-27 13:33 | 34.83924 | -6.86863 | 31747 ft | 478 kts | 27° |
| 2026-04-27 13:33 | 34.86891 | -6.85033 | 32112 ft | 478 kts | 27° |
| 2026-04-27 13:33 | 34.89851 | -6.83209 | 32430 ft | 478 kts | 27° |
| 2026-04-27 13:34 | 34.92853 | -6.81360 | 32777 ft | 478 kts | 27° |
| 2026-04-27 13:34 | 34.95779 | -6.79555 | 33117 ft | 478 kts | 27° |
| 2026-04-27 13:34 | 34.98751 | -6.77718 | 33459 ft | 478 kts | 27° |
| 2026-04-27 13:34 | 35.01709 | -6.75889 | 33791 ft | 478 kts | 27° |
| 2026-04-27 13:35 | 35.04679 | -6.74052 | 34095 ft | 478 kts | 27° |
| 2026-04-27 13:35 | 35.07645 | -6.72215 | 34383 ft | 478 kts | 27° |
| 2026-04-27 13:35 | 35.10612 | -6.70377 | 34677 ft | 478 kts | 27° |
| 2026-04-27 13:35 | 35.13576 | -6.68538 | 34955 ft | 479 kts | 27° |
| 2026-04-27 13:36 | 35.16550 | -6.66693 | 35242 ft | 479 kts | 27° |
| 2026-04-27 13:36 | 35.19521 | -6.64847 | 35523 ft | 479 kts | 27° |
| 2026-04-27 13:36 | 35.22489 | -6.63002 | 35748 ft | 478 kts | 27° |
| 2026-04-27 13:36 | 35.25426 | -6.61174 | 35749 ft | 470 kts | 27° |
| 2026-04-27 13:37 | 35.31229 | -6.57559 | 35752 ft | 468 kts | 27° |
| 2026-04-27 13:37 | 35.37039 | -6.53934 | 35750 ft | 470 kts | 27° |
| 2026-04-27 13:38 | 35.42863 | -6.50293 | 35753 ft | 470 kts | 27° |
| 2026-04-27 13:38 | 35.48649 | -6.46603 | 35760 ft | 470 kts | 28° |
| 2026-04-27 13:39 | 35.54408 | -6.42795 | 35782 ft | 470 kts | 27° |
| 2026-04-27 13:39 | 35.60194 | -6.39052 | 35774 ft | 471 kts | 27° |
| 2026-04-27 13:40 | 35.65968 | -6.35257 | 35770 ft | 469 kts | 27° |
| 2026-04-27 13:40 | 35.71713 | -6.31505 | 35780 ft | 470 kts | 27° |
| 2026-04-27 13:41 | 35.77489 | -6.27719 | 35781 ft | 469 kts | 27° |
| 2026-04-27 13:41 | 35.83286 | -6.23955 | 35787 ft | 469 kts | 27° |
| 2026-04-27 13:42 | 35.89091 | -6.20198 | 35800 ft | 472 kts | 27° |
| 2026-04-27 13:42 | 35.94905 | -6.16452 | 35824 ft | 472 kts | 27° |
| 2026-04-27 13:43 | 35.99719 | -6.13319 | 35826 ft | 470 kts | 27° |
| 2026-04-27 13:43 | 36.05512 | -6.09562 | 35820 ft | 471 kts | 27° |
| 2026-04-27 13:44 | 36.11308 | -6.05788 | 35852 ft | 472 kts | 26° |
| 2026-04-27 13:44 | 36.17095 | -6.02018 | 35850 ft | 472 kts | 27° |
| 2026-04-27 13:45 | 36.22873 | -5.98168 | 35856 ft | 473 kts | 34° |
| 2026-04-27 13:45 | 36.25437 | -5.95665 | 35856 ft | 471 kts | 45° |
| 2026-04-27 13:45 | 36.27764 | -5.92783 | 35882 ft | 472 kts | 46° |
| 2026-04-27 13:46 | 36.32366 | -5.86992 | 35878 ft | 471 kts | 46° |
| 2026-04-27 13:46 | 36.36982 | -5.81221 | 35877 ft | 470 kts | 46° |
| 2026-04-27 13:47 | 36.41578 | -5.75436 | 35893 ft | 469 kts | 46° |
| 2026-04-27 13:47 | 36.46165 | -5.69667 | 35886 ft | 470 kts | 45° |
| 2026-04-27 13:48 | 36.50754 | -5.63878 | 35895 ft | 472 kts | 46° |
| 2026-04-27 13:48 | 36.55338 | -5.58088 | 35904 ft | 471 kts | 45° |
| 2026-04-27 13:49 | 36.59929 | -5.52279 | 35908 ft | 471 kts | 45° |
| 2026-04-27 13:49 | 36.64515 | -5.46464 | 35905 ft | 466 kts | 46° |
| 2026-04-27 13:50 | 36.69049 | -5.40705 | 35910 ft | 467 kts | 46° |
| 2026-04-27 13:50 | 36.73606 | -5.34908 | 35894 ft | 467 kts | 46° |
| 2026-04-27 13:51 | 36.78152 | -5.29113 | 35904 ft | 467 kts | 46° |
| 2026-04-27 13:51 | 36.82702 | -5.23303 | 35904 ft | 468 kts | 46° |
| 2026-04-27 13:52 | 36.87247 | -5.17489 | 35918 ft | 468 kts | 46° |
| 2026-04-27 13:52 | 36.91692 | -5.11792 | 35918 ft | 467 kts | 46° |
| 2026-04-27 13:53 | 36.98448 | -5.03114 | 35911 ft | 466 kts | 46° |
| 2026-04-27 13:54 | 37.02959 | -4.97307 | 35921 ft | 466 kts | 46° |
| 2026-04-27 13:54 | 37.05392 | -4.94645 | 35930 ft | 463 kts | 34° |
| 2026-04-27 13:54 | 37.08156 | -4.92633 | 35928 ft | 459 kts | 23° |
| 2026-04-27 13:55 | 37.14120 | -4.89526 | 35918 ft | 461 kts | 21° |
| 2026-04-27 13:55 | 37.20024 | -4.86438 | 35913 ft | 459 kts | 22° |
| 2026-04-27 13:56 | 37.25891 | -4.83375 | 35908 ft | 460 kts | 22° |
| 2026-04-27 13:56 | 37.31802 | -4.80282 | 35909 ft | 460 kts | 22° |
| 2026-04-27 13:57 | 37.37710 | -4.77184 | 35907 ft | 461 kts | 22° |
| 2026-04-27 13:57 | 37.43598 | -4.74093 | 35883 ft | 457 kts | 22° |
| 2026-04-27 13:58 | 37.49477 | -4.70999 | 35887 ft | 458 kts | 22° |
| 2026-04-27 13:58 | 37.55354 | -4.67903 | 35885 ft | 458 kts | 22° |
| 2026-04-27 13:59 | 37.61227 | -4.64802 | 35884 ft | 458 kts | 22° |
| 2026-04-27 13:59 | 37.67101 | -4.61697 | 35888 ft | 457 kts | 22° |
| 2026-04-27 14:00 | 37.72964 | -4.58591 | 35888 ft | 457 kts | 22° |
| 2026-04-27 14:00 | 37.78792 | -4.55499 | 35903 ft | 457 kts | 22° |
| 2026-04-27 14:01 | 37.84661 | -4.52380 | 35901 ft | 458 kts | 22° |
| 2026-04-27 14:01 | 37.90558 | -4.49240 | 35894 ft | 457 kts | 22° |
| 2026-04-27 14:02 | 37.96374 | -4.46137 | 35893 ft | 457 kts | 22° |
| 2026-04-27 14:02 | 38.02235 | -4.43006 | 35896 ft | 457 kts | 22° |
| 2026-04-27 14:03 | 38.08094 | -4.39870 | 35894 ft | 457 kts | 22° |
| 2026-04-27 14:03 | 38.13943 | -4.36733 | 35907 ft | 457 kts | 22° |
| 2026-04-27 14:04 | 38.19798 | -4.33588 | 35905 ft | 456 kts | 22° |
| 2026-04-27 14:04 | 38.25646 | -4.30441 | 35906 ft | 456 kts | 22° |
| 2026-04-27 14:05 | 38.31495 | -4.27288 | 35909 ft | 456 kts | 22° |
| 2026-04-27 14:05 | 38.37337 | -4.24132 | 35914 ft | 456 kts | 22° |
| 2026-04-27 14:06 | 38.43168 | -4.20978 | 35912 ft | 456 kts | 22° |
| 2026-04-27 14:06 | 38.49004 | -4.17815 | 35914 ft | 456 kts | 22° |
| 2026-04-27 14:07 | 38.54851 | -4.14641 | 35916 ft | 456 kts | 22° |
| 2026-04-27 14:07 | 38.60681 | -4.11470 | 35920 ft | 456 kts | 22° |
| 2026-04-27 14:08 | 38.66516 | -4.08291 | 35918 ft | 455 kts | 22° |
| 2026-04-27 14:08 | 38.72343 | -4.05110 | 35918 ft | 455 kts | 22° |
| 2026-04-27 14:09 | 38.78158 | -4.01932 | 35914 ft | 454 kts | 22° |
| 2026-04-27 14:09 | 38.83982 | -3.98744 | 35920 ft | 455 kts | 22° |
| 2026-04-27 14:10 | 38.89761 | -3.95575 | 35922 ft | 455 kts | 22° |
| 2026-04-27 14:10 | 38.95588 | -3.92374 | 35919 ft | 456 kts | 22° |
| 2026-04-27 14:11 | 39.01431 | -3.89158 | 35921 ft | 456 kts | 22° |
| 2026-04-27 14:11 | 39.07249 | -3.85949 | 35922 ft | 455 kts | 21° |
| 2026-04-27 14:12 | 39.13045 | -3.82747 | 35915 ft | 453 kts | 21° |
| 2026-04-27 14:12 | 39.18827 | -3.79547 | 35910 ft | 451 kts | 21° |
| 2026-04-27 14:13 | 39.24601 | -3.76346 | 35911 ft | 453 kts | 21° |
| 2026-04-27 14:13 | 39.30398 | -3.73125 | 35924 ft | 453 kts | 21° |
| 2026-04-27 14:14 | 39.36164 | -3.69917 | 35923 ft | 450 kts | 21° |
| 2026-04-27 14:14 | 39.41923 | -3.66706 | 35922 ft | 451 kts | 21° |
| 2026-04-27 14:15 | 39.47674 | -3.63494 | 35923 ft | 451 kts | 21° |
| 2026-04-27 14:15 | 39.53431 | -3.60274 | 35933 ft | 451 kts | 21° |
| 2026-04-27 14:16 | 39.59173 | -3.57055 | 35932 ft | 450 kts | 21° |
| 2026-04-27 14:16 | 39.64881 | -3.53844 | 35935 ft | 450 kts | 21° |
| 2026-04-27 14:17 | 39.70625 | -3.50610 | 35939 ft | 450 kts | 21° |
| 2026-04-27 14:17 | 39.76375 | -3.47365 | 35936 ft | 450 kts | 21° |
| 2026-04-27 14:18 | 39.81785 | -3.43242 | 35940 ft | 453 kts | 32° |
| 2026-04-27 14:18 | 39.87024 | -3.38723 | 35937 ft | 451 kts | 31° |
| 2026-04-27 14:19 | 39.92266 | -3.34233 | 35940 ft | 451 kts | 31° |
| 2026-04-27 14:19 | 39.97493 | -3.29723 | 35948 ft | 451 kts | 31° |
| 2026-04-27 14:20 | 40.02739 | -3.25201 | 35944 ft | 452 kts | 31° |
| 2026-04-27 14:20 | 40.07976 | -3.20673 | 35941 ft | 451 kts | 31° |
| 2026-04-27 14:21 | 40.13204 | -3.16146 | 35939 ft | 451 kts | 31° |
| 2026-04-27 14:21 | 40.18430 | -3.11612 | 35939 ft | 451 kts | 31° |
| 2026-04-27 14:22 | 40.23654 | -3.07071 | 35940 ft | 451 kts | 31° |
| 2026-04-27 14:22 | 40.28871 | -3.02527 | 35937 ft | 449 kts | 31° |
| 2026-04-27 14:23 | 40.34076 | -2.97983 | 35939 ft | 449 kts | 31° |
| 2026-04-27 14:23 | 40.39272 | -2.93439 | 35937 ft | 449 kts | 31° |
| 2026-04-27 14:24 | 40.44437 | -2.88913 | 35940 ft | 450 kts | 31° |
| 2026-04-27 14:24 | 40.49381 | -2.84573 | 35935 ft | 450 kts | 31° |
| 2026-04-27 14:25 | 40.54582 | -2.79999 | 35935 ft | 450 kts | 31° |
| 2026-04-27 14:25 | 40.59784 | -2.75415 | 35936 ft | 450 kts | 31° |
| 2026-04-27 14:26 | 40.64978 | -2.70830 | 35937 ft | 450 kts | 31° |
| 2026-04-27 14:26 | 40.70183 | -2.66225 | 35938 ft | 449 kts | 31° |
| 2026-04-27 14:27 | 40.75362 | -2.61636 | 35936 ft | 448 kts | 31° |
| 2026-04-27 14:27 | 40.80535 | -2.57043 | 35936 ft | 448 kts | 31° |
| 2026-04-27 14:28 | 40.85707 | -2.52442 | 35938 ft | 449 kts | 31° |
| 2026-04-27 14:28 | 40.90891 | -2.47822 | 35935 ft | 450 kts | 31° |
| 2026-04-27 14:29 | 40.96075 | -2.43191 | 35935 ft | 449 kts | 31° |
| 2026-04-27 14:29 | 41.01250 | -2.38562 | 35935 ft | 449 kts | 31° |
| 2026-04-27 14:30 | 41.06207 | -2.33490 | 35933 ft | 451 kts | 37° |
| 2026-04-27 14:30 | 41.11092 | -2.28291 | 35945 ft | 450 kts | 36° |
| 2026-04-27 14:31 | 41.15973 | -2.23116 | 35940 ft | 449 kts | 37° |
| 2026-04-27 14:31 | 41.20017 | -2.18801 | 35943 ft | 449 kts | 37° |
| 2026-04-27 14:32 | 41.25698 | -2.12746 | 35950 ft | 450 kts | 37° |
| 2026-04-27 14:32 | 41.30571 | -2.07533 | 35951 ft | 450 kts | 37° |
| 2026-04-27 14:33 | 41.35446 | -2.02313 | 35947 ft | 450 kts | 37° |
| 2026-04-27 14:33 | 41.39526 | -1.97933 | 35947 ft | 451 kts | 37° |
| 2026-04-27 14:34 | 41.44412 | -1.92680 | 35952 ft | 451 kts | 37° |
| 2026-04-27 14:34 | 41.49284 | -1.87432 | 35948 ft | 448 kts | 37° |
| 2026-04-27 14:35 | 41.54103 | -1.82230 | 35950 ft | 448 kts | 37° |
| 2026-04-27 14:35 | 41.58951 | -1.76986 | 35955 ft | 449 kts | 37° |
| 2026-04-27 14:36 | 41.63797 | -1.71734 | 35958 ft | 449 kts | 37° |
| 2026-04-27 14:36 | 41.68648 | -1.66466 | 35957 ft | 449 kts | 37° |
| 2026-04-27 14:37 | 41.73498 | -1.61189 | 35953 ft | 449 kts | 37° |
| 2026-04-27 14:37 | 41.78350 | -1.55899 | 35949 ft | 450 kts | 37° |
| 2026-04-27 14:38 | 41.83197 | -1.50603 | 35937 ft | 449 kts | 38° |
| 2026-04-27 14:38 | 41.88034 | -1.45308 | 35932 ft | 448 kts | 38° |
| 2026-04-27 14:39 | 41.92857 | -1.40018 | 35933 ft | 448 kts | 38° |
| 2026-04-27 14:39 | 41.97650 | -1.34750 | 35933 ft | 448 kts | 38° |
| 2026-04-27 14:40 | 42.02477 | -1.29434 | 35944 ft | 449 kts | 38° |
| 2026-04-27 14:40 | 42.07314 | -1.24095 | 35945 ft | 450 kts | 38° |
| 2026-04-27 14:41 | 42.12144 | -1.18755 | 35949 ft | 449 kts | 38° |
| 2026-04-27 14:41 | 42.16965 | -1.13415 | 35946 ft | 448 kts | 38° |
| 2026-04-27 14:42 | 42.21765 | -1.08086 | 35961 ft | 448 kts | 38° |
| 2026-04-27 14:42 | 42.26578 | -1.02732 | 35963 ft | 449 kts | 38° |
| 2026-04-27 14:43 | 42.31399 | -0.97357 | 35971 ft | 449 kts | 38° |
| 2026-04-27 14:43 | 42.36209 | -0.91985 | 35974 ft | 449 kts | 38° |
| 2026-04-27 14:44 | 42.41011 | -0.86611 | 35984 ft | 448 kts | 38° |
| 2026-04-27 14:44 | 42.45246 | -0.80423 | 35991 ft | 450 kts | 51° |
| 2026-04-27 14:45 | 42.49045 | -0.73696 | 35987 ft | 447 kts | 51° |
| 2026-04-27 14:45 | 42.52848 | -0.67026 | 35991 ft | 448 kts | 51° |
| 2026-04-27 14:46 | 42.56640 | -0.60321 | 36012 ft | 448 kts | 51° |
| 2026-04-27 14:46 | 42.60429 | -0.53623 | 36012 ft | 448 kts | 51° |
| 2026-04-27 14:47 | 42.64214 | -0.46909 | 36019 ft | 448 kts | 51° |
| 2026-04-27 14:47 | 42.68006 | -0.40172 | 36022 ft | 449 kts | 51° |
| 2026-04-27 14:48 | 42.71795 | -0.33423 | 36036 ft | 449 kts | 52° |
| 2026-04-27 14:48 | 42.77467 | -0.23294 | 36039 ft | 448 kts | 52° |
| 2026-04-27 14:49 | 42.81324 | -0.16639 | 36039 ft | 448 kts | 49° |
| 2026-04-27 14:49 | 42.85259 | -0.10058 | 36038 ft | 448 kts | 50° |
| 2026-04-27 14:50 | 42.89221 | -0.03481 | 36031 ft | 449 kts | 49° |
| 2026-04-27 14:50 | 42.93137 | 0.03057 | 36041 ft | 445 kts | 50° |
| 2026-04-27 14:51 | 42.97076 | 0.09644 | 36043 ft | 446 kts | 50° |
| 2026-04-27 14:51 | 43.00978 | 0.16180 | 36042 ft | 447 kts | 50° |
| 2026-04-27 14:52 | 43.04912 | 0.22790 | 36050 ft | 450 kts | 50° |
| 2026-04-27 14:52 | 43.08836 | 0.29393 | 36042 ft | 448 kts | 50° |
| 2026-04-27 14:53 | 43.12759 | 0.36012 | 36029 ft | 447 kts | 50° |
| 2026-04-27 14:53 | 43.16675 | 0.42634 | 36026 ft | 446 kts | 50° |
| 2026-04-27 14:54 | 43.20585 | 0.49260 | 36013 ft | 447 kts | 50° |
| 2026-04-27 14:54 | 43.24489 | 0.55891 | 36024 ft | 449 kts | 50° |
| 2026-04-27 14:55 | 43.28417 | 0.62578 | 36018 ft | 449 kts | 50° |
| 2026-04-27 14:55 | 43.32330 | 0.69255 | 36017 ft | 449 kts | 50° |
| 2026-04-27 14:56 | 43.36012 | 0.75551 | 36006 ft | 449 kts | 50° |
| 2026-04-27 14:56 | 43.39917 | 0.82244 | 36004 ft | 448 kts | 50° |
| 2026-04-27 14:57 | 43.43809 | 0.88930 | 35998 ft | 450 kts | 50° |
| 2026-04-27 14:57 | 43.47734 | 0.95688 | 35999 ft | 451 kts | 50° |
| 2026-04-27 14:58 | 43.51648 | 1.02441 | 35999 ft | 451 kts | 50° |
| 2026-04-27 14:58 | 43.55556 | 1.09202 | 35994 ft | 451 kts | 50° |
| 2026-04-27 14:59 | 43.59470 | 1.15987 | 35982 ft | 451 kts | 50° |
| 2026-04-27 14:59 | 43.63355 | 1.22739 | 35981 ft | 449 kts | 50° |
| 2026-04-27 15:00 | 43.67256 | 1.29533 | 35980 ft | 452 kts | 50° |
| 2026-04-27 15:00 | 43.70988 | 1.36447 | 35979 ft | 452 kts | 52° |
| 2026-04-27 15:01 | 43.74751 | 1.43420 | 35982 ft | 452 kts | 52° |
| 2026-04-27 15:01 | 43.78460 | 1.50420 | 35983 ft | 451 kts | 52° |
| 2026-04-27 15:02 | 43.82182 | 1.57398 | 35973 ft | 448 kts | 52° |
| 2026-04-27 15:02 | 43.85877 | 1.64374 | 35993 ft | 451 kts | 52° |
| 2026-04-27 15:03 | 43.89593 | 1.71392 | 35979 ft | 451 kts | 52° |
| 2026-04-27 15:03 | 43.93295 | 1.78407 | 35978 ft | 451 kts | 52° |
| 2026-04-27 15:04 | 43.96918 | 1.85502 | 36003 ft | 451 kts | 54° |
| 2026-04-27 15:04 | 44.00525 | 1.92634 | 35985 ft | 450 kts | 53° |
| 2026-04-27 15:05 | 44.04075 | 1.99805 | 36002 ft | 451 kts | 54° |
| 2026-04-27 15:05 | 44.07639 | 2.06966 | 35997 ft | 451 kts | 54° |
| 2026-04-27 15:06 | 44.11200 | 2.14156 | 36011 ft | 451 kts | 54° |
| 2026-04-27 15:06 | 44.14757 | 2.21355 | 36003 ft | 451 kts | 54° |
| 2026-04-27 15:07 | 44.18310 | 2.28558 | 35993 ft | 451 kts | 54° |
| 2026-04-27 15:07 | 44.21844 | 2.35747 | 36012 ft | 450 kts | 54° |
| 2026-04-27 15:08 | 44.25360 | 2.42913 | 36010 ft | 451 kts | 54° |
| 2026-04-27 15:08 | 44.28890 | 2.50127 | 36011 ft | 451 kts | 54° |
| 2026-04-27 15:09 | 44.32423 | 2.57363 | 36008 ft | 451 kts | 54° |
| 2026-04-27 15:09 | 44.35948 | 2.64603 | 36013 ft | 450 kts | 54° |
| 2026-04-27 15:10 | 44.39455 | 2.71825 | 36008 ft | 448 kts | 54° |
| 2026-04-27 15:10 | 44.42957 | 2.79051 | 36007 ft | 449 kts | 54° |
| 2026-04-27 15:11 | 44.46457 | 2.86294 | 36011 ft | 449 kts | 54° |
| 2026-04-27 15:11 | 44.49952 | 2.93543 | 36007 ft | 449 kts | 54° |
| 2026-04-27 15:12 | 44.53433 | 3.00782 | 36008 ft | 449 kts | 54° |
| 2026-04-27 15:12 | 44.56919 | 3.08049 | 36003 ft | 447 kts | 54° |
| 2026-04-27 15:13 | 44.60394 | 3.15312 | 36009 ft | 449 kts | 54° |
| 2026-04-27 15:13 | 44.63501 | 3.22855 | 36001 ft | 450 kts | 59° |
| 2026-04-27 15:14 | 44.66570 | 3.30514 | 35998 ft | 450 kts | 58° |
| 2026-04-27 15:14 | 44.69638 | 3.38166 | 35994 ft | 450 kts | 59° |
| 2026-04-27 15:15 | 44.72701 | 3.45849 | 35996 ft | 450 kts | 59° |
| 2026-04-27 15:15 | 44.75762 | 3.53534 | 35992 ft | 450 kts | 59° |
| 2026-04-27 15:16 | 44.79124 | 3.60934 | 35991 ft | 449 kts | 53° |
| 2026-04-27 15:16 | 44.82684 | 3.68138 | 35992 ft | 448 kts | 53° |
| 2026-04-27 15:17 | 44.86213 | 3.75382 | 35991 ft | 448 kts | 53° |
| 2026-04-27 15:17 | 44.89754 | 3.82618 | 35988 ft | 447 kts | 53° |
| 2026-04-27 15:18 | 44.93253 | 3.89815 | 35995 ft | 445 kts | 53° |
| 2026-04-27 15:18 | 44.96765 | 3.97041 | 35986 ft | 447 kts | 53° |
| 2026-04-27 15:19 | 45.00277 | 4.04295 | 36017 ft | 447 kts | 53° |
| 2026-04-27 15:19 | 45.03783 | 4.11548 | 36012 ft | 447 kts | 53° |
| 2026-04-27 15:20 | 45.07281 | 4.18807 | 36006 ft | 447 kts | 53° |
| 2026-04-27 15:20 | 45.10777 | 4.26079 | 35990 ft | 444 kts | 53° |
| 2026-04-27 15:21 | 45.13663 | 4.32094 | 35991 ft | 446 kts | 53° |
| 2026-04-27 15:21 | 45.17146 | 4.39375 | 35993 ft | 446 kts | 53° |
| 2026-04-27 15:22 | 45.20619 | 4.46650 | 35993 ft | 446 kts | 53° |
| 2026-04-27 15:22 | 45.24091 | 4.53943 | 35989 ft | 446 kts | 53° |
| 2026-04-27 15:23 | 45.27559 | 4.61245 | 35990 ft | 446 kts | 53° |
| 2026-04-27 15:23 | 45.31017 | 4.68547 | 35985 ft | 446 kts | 53° |
| 2026-04-27 15:24 | 45.34476 | 4.75869 | 35982 ft | 446 kts | 53° |
| 2026-04-27 15:24 | 45.37936 | 4.83211 | 35983 ft | 446 kts | 53° |
| 2026-04-27 15:25 | 45.41384 | 4.90547 | 35988 ft | 447 kts | 53° |
| 2026-04-27 15:25 | 45.44840 | 4.97920 | 35993 ft | 447 kts | 53° |
| 2026-04-27 15:26 | 45.48287 | 5.05291 | 35998 ft | 448 kts | 53° |
| 2026-04-27 15:26 | 45.51725 | 5.12665 | 35999 ft | 445 kts | 53° |
| 2026-04-27 15:27 | 45.55149 | 5.20024 | 36001 ft | 446 kts | 53° |
| 2026-04-27 15:27 | 45.58576 | 5.27412 | 36002 ft | 446 kts | 53° |
| 2026-04-27 15:28 | 45.61763 | 5.34298 | 35998 ft | 446 kts | 53° |
| 2026-04-27 15:28 | 45.65178 | 5.41696 | 36000 ft | 446 kts | 53° |
| 2026-04-27 15:29 | 45.68601 | 5.49130 | 35992 ft | 447 kts | 53° |
| 2026-04-27 15:29 | 45.71994 | 5.56522 | 35984 ft | 444 kts | 53° |
| 2026-04-27 15:30 | 45.75365 | 5.63879 | 35981 ft | 445 kts | 53° |
| 2026-04-27 15:30 | 45.78753 | 5.71299 | 35981 ft | 446 kts | 53° |
| 2026-04-27 15:31 | 45.82163 | 5.78782 | 35984 ft | 446 kts | 53° |
| 2026-04-27 15:31 | 45.85536 | 5.86204 | 35977 ft | 448 kts | 53° |
| 2026-04-27 15:32 | 45.88924 | 5.93684 | 35971 ft | 446 kts | 53° |
| 2026-04-27 15:32 | 45.92885 | 6.00365 | 35997 ft | 438 kts | 38° |
| 2026-04-27 15:33 | 45.97418 | 6.06228 | 35970 ft | 439 kts | 38° |
| 2026-04-27 15:33 | 46.01950 | 6.12125 | 35974 ft | 441 kts | 38° |
| 2026-04-27 15:34 | 46.06511 | 6.18062 | 35979 ft | 441 kts | 38° |
| 2026-04-27 15:34 | 46.11058 | 6.24001 | 35997 ft | 441 kts | 38° |
| 2026-04-27 15:35 | 46.15597 | 6.29938 | 36003 ft | 441 kts | 38° |
| 2026-04-27 15:35 | 46.20130 | 6.35885 | 36003 ft | 441 kts | 38° |
| 2026-04-27 15:36 | 46.24672 | 6.41857 | 35999 ft | 440 kts | 38° |
| 2026-04-27 15:36 | 46.29192 | 6.47812 | 35995 ft | 440 kts | 38° |
| 2026-04-27 15:37 | 46.33710 | 6.53780 | 35992 ft | 440 kts | 38° |
| 2026-04-27 15:37 | 46.38224 | 6.59757 | 36001 ft | 440 kts | 38° |
| 2026-04-27 15:38 | 46.42758 | 6.65772 | 35990 ft | 442 kts | 38° |
| 2026-04-27 15:38 | 46.46898 | 6.72425 | 35992 ft | 447 kts | 47° |
| 2026-04-27 15:39 | 46.50797 | 6.79433 | 35998 ft | 446 kts | 47° |
| 2026-04-27 15:39 | 46.54703 | 6.86450 | 35997 ft | 446 kts | 47° |
| 2026-04-27 15:40 | 46.58568 | 6.93413 | 35998 ft | 442 kts | 46° |
| 2026-04-27 15:40 | 46.62422 | 7.00325 | 36002 ft | 442 kts | 47° |
| 2026-04-27 15:41 | 46.66278 | 7.07292 | 36003 ft | 442 kts | 47° |
| 2026-04-27 15:41 | 46.70135 | 7.14259 | 36005 ft | 443 kts | 47° |
| 2026-04-27 15:42 | 46.74002 | 7.21272 | 36004 ft | 444 kts | 47° |
| 2026-04-27 15:42 | 46.77884 | 7.28324 | 36000 ft | 446 kts | 47° |
| 2026-04-27 15:43 | 46.81759 | 7.35391 | 36005 ft | 446 kts | 47° |
| 2026-04-27 15:43 | 46.85602 | 7.42414 | 36003 ft | 442 kts | 47° |
| 2026-04-27 15:44 | 46.89442 | 7.49466 | 36006 ft | 443 kts | 47° |
| 2026-04-27 15:44 | 46.93275 | 7.56527 | 35995 ft | 444 kts | 47° |
| 2026-04-27 15:45 | 46.97151 | 7.63680 | 35975 ft | 447 kts | 47° |
| 2026-04-27 15:45 | 47.00992 | 7.70792 | 35974 ft | 447 kts | 47° |
| 2026-04-27 15:46 | 47.04923 | 7.78067 | 35973 ft | 446 kts | 47° |
| 2026-04-27 15:46 | 47.08659 | 7.85010 | 35980 ft | 446 kts | 47° |
| 2026-04-27 15:47 | 47.12496 | 7.92154 | 35978 ft | 447 kts | 47° |
| 2026-04-27 15:47 | 47.15987 | 7.99812 | 35991 ft | 452 kts | 54° |
| 2026-04-27 15:48 | 47.19325 | 8.07638 | 35998 ft | 451 kts | 53° |
| 2026-04-27 15:49 | 47.24314 | 8.19372 | 35999 ft | 451 kts | 54° |
| 2026-04-27 15:49 | 47.27636 | 8.27206 | 36005 ft | 451 kts | 54° |
| 2026-04-27 15:50 | 47.30846 | 8.34348 | 36017 ft | 445 kts | 44° |
| 2026-04-27 15:50 | 47.34944 | 8.41152 | 36002 ft | 444 kts | 43° |
| 2026-04-27 15:51 | 47.39045 | 8.47977 | 36038 ft | 444 kts | 44° |
| 2026-04-27 15:51 | 47.43143 | 8.54804 | 36034 ft | 444 kts | 44° |
| 2026-04-27 15:52 | 47.47240 | 8.61650 | 36034 ft | 444 kts | 44° |
| 2026-04-27 15:52 | 47.51339 | 8.68516 | 36034 ft | 446 kts | 44° |
| 2026-04-27 15:53 | 47.55437 | 8.75399 | 36032 ft | 446 kts | 44° |
| 2026-04-27 15:53 | 47.59424 | 8.82333 | 36030 ft | 449 kts | 51° |
| 2026-04-27 15:54 | 47.62737 | 8.90187 | 36023 ft | 449 kts | 54° |
| 2026-04-27 15:54 | 47.66049 | 8.98118 | 36013 ft | 449 kts | 53° |
| 2026-04-27 15:55 | 47.69386 | 9.06002 | 36003 ft | 448 kts | 45° |
| 2026-04-27 15:55 | 47.70805 | 9.08158 | 36048 ft | 437 kts | 31° |
| 2026-04-27 15:55 | 47.74314 | 9.10869 | 36032 ft | 427 kts | 13° |
| 2026-04-27 15:55 | 47.77162 | 9.11985 | 36033 ft | 420 kts | 2° |
| 2026-04-27 15:56 | 47.80059 | 9.12404 | 36017 ft | 418 kts | 358° |
| 2026-04-27 15:56 | 47.85867 | 9.13052 | 36018 ft | 422 kts | 1° |
| 2026-04-27 15:57 | 47.91683 | 9.14204 | 36024 ft | 420 kts | 0° |
| 2026-04-27 15:57 | 47.97100 | 9.15003 | 36024 ft | 419 kts | 0° |
| 2026-04-27 15:58 | 48.02900 | 9.16010 | 36025 ft | 420 kts | 0° |
| 2026-04-27 15:58 | 48.08700 | 9.16954 | 36019 ft | 419 kts | 0° |
| 2026-04-27 15:59 | 48.14491 | 9.17917 | 36026 ft | 419 kts | 0° |
| 2026-04-27 15:59 | 48.20295 | 9.18881 | 36030 ft | 420 kts | 0° |
| 2026-04-27 16:00 | 48.26099 | 9.19848 | 36029 ft | 419 kts | 0° |
| 2026-04-27 16:00 | 48.31897 | 9.20818 | 36033 ft | 420 kts | 360° |
| 2026-04-27 16:01 | 48.37698 | 9.21790 | 36036 ft | 420 kts | 0° |
| 2026-04-27 16:01 | 48.43508 | 9.22765 | 36035 ft | 420 kts | 0° |
| 2026-04-27 16:02 | 48.49322 | 9.23762 | 36035 ft | 420 kts | 0° |
| 2026-04-27 16:02 | 48.55124 | 9.24763 | 36032 ft | 419 kts | 0° |
| 2026-04-27 16:03 | 48.60819 | 9.26817 | 36045 ft | 436 kts | 22° |
| 2026-04-27 16:03 | 48.63370 | 9.29318 | 36040 ft | 441 kts | 34° |
| 2026-04-27 16:03 | 48.65560 | 9.32606 | 36045 ft | 448 kts | 45° |
| 2026-04-27 16:04 | 48.69452 | 9.39982 | 36044 ft | 448 kts | 45° |
| 2026-04-27 16:04 | 48.73441 | 9.47239 | 36048 ft | 448 kts | 45° |
| 2026-04-27 16:05 | 48.77370 | 9.54555 | 36039 ft | 448 kts | 45° |
| 2026-04-27 16:05 | 48.81330 | 9.61884 | 36048 ft | 449 kts | 45° |
| 2026-04-27 16:06 | 48.85252 | 9.69186 | 36050 ft | 448 kts | 45° |
| 2026-04-27 16:06 | 48.89179 | 9.76513 | 36077 ft | 447 kts | 45° |
| 2026-04-27 16:07 | 48.93112 | 9.83870 | 36057 ft | 449 kts | 46° |
| 2026-04-27 16:07 | 48.97042 | 9.91248 | 36061 ft | 449 kts | 46° |
| 2026-04-27 16:08 | 49.00966 | 9.98628 | 36062 ft | 448 kts | 46° |
| 2026-04-27 16:08 | 49.04878 | 10.06012 | 36060 ft | 448 kts | 46° |
| 2026-04-27 16:09 | 49.08784 | 10.13400 | 36083 ft | 449 kts | 46° |
| 2026-04-27 16:09 | 49.14008 | 10.23301 | 36073 ft | 448 kts | 44° |
| 2026-04-27 16:10 | 49.22655 | 10.36820 | 36075 ft | 445 kts | 40° |
| 2026-04-27 16:11 | 49.29213 | 10.46839 | 36081 ft | 445 kts | 39° |
| 2026-04-27 16:12 | 49.35743 | 10.56964 | 36084 ft | 447 kts | 41° |
| 2026-04-27 16:13 | 49.42169 | 10.67325 | 36083 ft | 446 kts | 41° |
| 2026-04-27 16:13 | 49.48674 | 10.77520 | 36079 ft | 446 kts | 40° |